sensor_id;sensor_type;location;lat;lon;timestamp;P1;durP1;ratioP1;P2;durP2;ratioP2
3321;SDS011;1673;51.388;7.086;2022-10-31T00:01:43;21.05;;;8.32;;
3321;SDS011;1673;51.388;7.086;2022-10-31T00:04:13;19.23;;;7.53;;
3321;SDS011;1673;51.388;7.086;2022-10-31T00:06:45;17.35;;;8.38;;
3321;SDS011;1673;51.388;7.086;2022-10-31T00:09:15;20.60;;;8.23;;
3321;SDS011;1673;51.388;7.086;2022-10-31T00:11:44;16.90;;;8.00;;
3321;SDS011;1673;51.388;7.086;2022-10-31T00:14:14;16.00;;;7.30;;
3321;SDS011;1673;51.388;7.086;2022-10-31T00:16:43;16.38;;;7.63;;
3321;SDS011;1673;51.388;7.086;2022-10-31T00:19:13;17.00;;;7.43;;
3321;SDS011;1673;51.388;7.086;2022-10-31T00:21:45;12.25;;;7.13;;
3321;SDS011;1673;51.388;7.086;2022-10-31T00:24:15;22.60;;;7.80;;
3321;SDS011;1673;51.388;7.086;2022-10-31T00:26:44;20.85;;;7.80;;
3321;SDS011;1673;51.388;7.086;2022-10-31T00:29:14;22.45;;;7.68;;
3321;SDS011;1673;51.388;7.086;2022-10-31T00:31:43;18.63;;;7.57;;
3321;SDS011;1673;51.388;7.086;2022-10-31T00:34:13;17.25;;;8.45;;
3321;SDS011;1673;51.388;7.086;2022-10-31T00:36:45;17.25;;;7.80;;
3321;SDS011;1673;51.388;7.086;2022-10-31T00:39:15;20.55;;;7.50;;
3321;SDS011;1673;51.388;7.086;2022-10-31T00:41:45;18.23;;;8.15;;
3321;SDS011;1673;51.388;7.086;2022-10-31T00:44:15;19.47;;;7.17;;
3321;SDS011;1673;51.388;7.086;2022-10-31T00:46:45;14.75;;;7.57;;
3321;SDS011;1673;51.388;7.086;2022-10-31T00:49:20;20.88;;;8.25;;
3321;SDS011;1673;51.388;7.086;2022-10-31T00:51:52;22.37;;;7.87;;
3321;SDS011;1673;51.388;7.086;2022-10-31T00:54:21;16.50;;;7.47;;
3321;SDS011;1673;51.388;7.086;2022-10-31T00:56:51;16.45;;;7.70;;
3321;SDS011;1673;51.388;7.086;2022-10-31T00:59:22;18.52;;;7.60;;
3321;SDS011;1673;51.388;7.086;2022-10-31T01:01:51;17.05;;;8.27;;
3321;SDS011;1673;51.388;7.086;2022-10-31T01:04:21;15.27;;;7.70;;
3321;SDS011;1673;51.388;7.086;2022-10-31T01:06:53;22.63;;;8.48;;
3321;SDS011;1673;51.388;7.086;2022-10-31T01:09:23;20.35;;;8.45;;
3321;SDS011;1673;51.388;7.086;2022-10-31T01:11:53;19.13;;;7.22;;
3321;SDS011;1673;51.388;7.086;2022-10-31T01:14:23;18.00;;;7.93;;
3321;SDS011;1673;51.388;7.086;2022-10-31T01:16:56;18.38;;;7.47;;
3321;SDS011;1673;51.388;7.086;2022-10-31T01:19:25;19.63;;;8.07;;
3321;SDS011;1673;51.388;7.086;2022-10-31T01:21:58;18.07;;;8.37;;
3321;SDS011;1673;51.388;7.086;2022-10-31T01:24:28;20.00;;;8.63;;
3321;SDS011;1673;51.388;7.086;2022-10-31T01:27:00;17.42;;;7.13;;
3321;SDS011;1673;51.388;7.086;2022-10-31T01:29:32;16.15;;;7.78;;
3321;SDS011;1673;51.388;7.086;2022-10-31T01:32:02;22.45;;;7.40;;
3321;SDS011;1673;51.388;7.086;2022-10-31T01:34:32;20.97;;;8.27;;
3321;SDS011;1673;51.388;7.086;2022-10-31T01:37:04;16.77;;;8.20;;
3321;SDS011;1673;51.388;7.086;2022-10-31T01:39:34;18.55;;;7.72;;
3321;SDS011;1673;51.388;7.086;2022-10-31T01:42:04;15.27;;;7.70;;
3321;SDS011;1673;51.388;7.086;2022-10-31T01:47:38;15.20;;;8.07;;
3321;SDS011;1673;51.388;7.086;2022-10-31T01:50:12;19.90;;;8.53;;
3321;SDS011;1673;51.388;7.086;2022-10-31T01:52:47;17.35;;;7.55;;
3321;SDS011;1673;51.388;7.086;2022-10-31T01:55:18;13.75;;;7.88;;
3321;SDS011;1673;51.388;7.086;2022-10-31T01:57:55;26.80;;;7.88;;
3321;SDS011;1673;51.388;7.086;2022-10-31T02:00:28;18.23;;;8.25;;
3321;SDS011;1673;51.388;7.086;2022-10-31T02:02:57;14.48;;;7.57;;
3321;SDS011;1673;51.388;7.086;2022-10-31T02:05:28;15.83;;;7.50;;
3321;SDS011;1673;51.388;7.086;2022-10-31T02:08:02;13.80;;;7.25;;
3321;SDS011;1673;51.388;7.086;2022-10-31T02:10:35;17.27;;;8.10;;
3321;SDS011;1673;51.388;7.086;2022-10-31T02:13:07;16.08;;;7.53;;
3321;SDS011;1673;51.388;7.086;2022-10-31T02:15:44;18.42;;;8.60;;
3321;SDS011;1673;51.388;7.086;2022-10-31T02:18:14;17.23;;;7.78;;
3321;SDS011;1673;51.388;7.086;2022-10-31T02:20:47;17.25;;;7.53;;
3321;SDS011;1673;51.388;7.086;2022-10-31T02:26:41;21.53;;;9.27;;
3321;SDS011;1673;51.388;7.086;2022-10-31T02:29:25;17.67;;;7.68;;
3321;SDS011;1673;51.388;7.086;2022-10-31T02:32:19;21.77;;;8.15;;
3321;SDS011;1673;51.388;7.086;2022-10-31T02:34:52;23.63;;;9.00;;
3321;SDS011;1673;51.388;7.086;2022-10-31T02:37:28;18.85;;;7.50;;
3321;SDS011;1673;51.388;7.086;2022-10-31T02:40:04;18.92;;;7.32;;
3321;SDS011;1673;51.388;7.086;2022-10-31T02:43:05;17.80;;;8.73;;
3321;SDS011;1673;51.388;7.086;2022-10-31T02:45:38;20.83;;;9.07;;
3321;SDS011;1673;51.388;7.086;2022-10-31T02:48:17;18.25;;;8.00;;
3321;SDS011;1673;51.388;7.086;2022-10-31T02:50:50;18.58;;;8.77;;
3321;SDS011;1673;51.388;7.086;2022-10-31T02:53:23;18.45;;;8.65;;
3321;SDS011;1673;51.388;7.086;2022-10-31T02:55:59;16.52;;;7.53;;
3321;SDS011;1673;51.388;7.086;2022-10-31T02:58:31;19.13;;;8.50;;
3321;SDS011;1673;51.388;7.086;2022-10-31T03:01:10;19.40;;;7.63;;
3321;SDS011;1673;51.388;7.086;2022-10-31T03:03:57;20.50;;;9.15;;
3321;SDS011;1673;51.388;7.086;2022-10-31T03:06:37;22.42;;;8.73;;
3321;SDS011;1673;51.388;7.086;2022-10-31T03:09:13;24.35;;;10.82;;
3321;SDS011;1673;51.388;7.086;2022-10-31T03:11:50;27.08;;;11.45;;
3321;SDS011;1673;51.388;7.086;2022-10-31T03:14:28;19.33;;;9.25;;
3321;SDS011;1673;51.388;7.086;2022-10-31T03:17:04;22.42;;;10.18;;
3321;SDS011;1673;51.388;7.086;2022-10-31T03:19:38;18.85;;;8.75;;
3321;SDS011;1673;51.388;7.086;2022-10-31T03:22:15;19.42;;;9.10;;
3321;SDS011;1673;51.388;7.086;2022-10-31T03:24:46;21.50;;;8.88;;
3321;SDS011;1673;51.388;7.086;2022-10-31T03:27:19;19.52;;;8.55;;
3321;SDS011;1673;51.388;7.086;2022-10-31T03:29:52;19.37;;;8.70;;
3321;SDS011;1673;51.388;7.086;2022-10-31T03:32:24;19.27;;;8.57;;
3321;SDS011;1673;51.388;7.086;2022-10-31T03:34:59;21.27;;;9.00;;
3321;SDS011;1673;51.388;7.086;2022-10-31T03:37:32;17.30;;;8.32;;
3321;SDS011;1673;51.388;7.086;2022-10-31T03:40:03;19.08;;;8.40;;
3321;SDS011;1673;51.388;7.086;2022-10-31T03:42:37;19.13;;;8.30;;
3321;SDS011;1673;51.388;7.086;2022-10-31T03:45:10;19.67;;;8.50;;
3321;SDS011;1673;51.388;7.086;2022-10-31T03:47:42;21.15;;;9.43;;
3321;SDS011;1673;51.388;7.086;2022-10-31T03:50:17;17.53;;;8.60;;
3321;SDS011;1673;51.388;7.086;2022-10-31T03:52:49;20.63;;;9.18;;
3321;SDS011;1673;51.388;7.086;2022-10-31T03:55:25;19.80;;;8.20;;
3321;SDS011;1673;51.388;7.086;2022-10-31T03:57:57;16.55;;;8.63;;
3321;SDS011;1673;51.388;7.086;2022-10-31T04:00:30;16.80;;;8.10;;
3321;SDS011;1673;51.388;7.086;2022-10-31T04:03:03;21.30;;;9.27;;
3321;SDS011;1673;51.388;7.086;2022-10-31T04:05:39;19.40;;;9.02;;
3321;SDS011;1673;51.388;7.086;2022-10-31T04:08:11;22.15;;;8.98;;
3321;SDS011;1673;51.388;7.086;2022-10-31T04:10:44;23.08;;;8.80;;
3321;SDS011;1673;51.388;7.086;2022-10-31T04:13:19;20.25;;;9.68;;
3321;SDS011;1673;51.388;7.086;2022-10-31T04:15:58;16.83;;;8.30;;
3321;SDS011;1673;51.388;7.086;2022-10-31T04:18:28;15.30;;;9.00;;
3321;SDS011;1673;51.388;7.086;2022-10-31T04:21:04;24.27;;;10.25;;
3321;SDS011;1673;51.388;7.086;2022-10-31T04:23:35;15.88;;;9.02;;
3321;SDS011;1673;51.388;7.086;2022-10-31T04:26:16;21.42;;;9.48;;
3321;SDS011;1673;51.388;7.086;2022-10-31T04:28:45;18.20;;;8.43;;
3321;SDS011;1673;51.388;7.086;2022-10-31T04:31:15;20.40;;;9.13;;
3321;SDS011;1673;51.388;7.086;2022-10-31T04:33:47;20.63;;;10.00;;
3321;SDS011;1673;51.388;7.086;2022-10-31T04:36:19;19.63;;;10.20;;
3321;SDS011;1673;51.388;7.086;2022-10-31T04:38:52;23.35;;;10.13;;
3321;SDS011;1673;51.388;7.086;2022-10-31T04:41:38;20.38;;;9.00;;
3321;SDS011;1673;51.388;7.086;2022-10-31T04:44:14;24.55;;;8.52;;
3321;SDS011;1673;51.388;7.086;2022-10-31T04:46:48;25.98;;;10.32;;
3321;SDS011;1673;51.388;7.086;2022-10-31T04:49:17;24.85;;;9.88;;
3321;SDS011;1673;51.388;7.086;2022-10-31T04:51:50;23.27;;;9.45;;
3321;SDS011;1673;51.388;7.086;2022-10-31T04:54:19;28.45;;;8.88;;
3321;SDS011;1673;51.388;7.086;2022-10-31T04:57:07;17.70;;;9.00;;
3321;SDS011;1673;51.388;7.086;2022-10-31T04:59:37;26.52;;;10.38;;
3321;SDS011;1673;51.388;7.086;2022-10-31T05:02:07;22.90;;;10.07;;
3321;SDS011;1673;51.388;7.086;2022-10-31T05:04:49;20.80;;;10.40;;
3321;SDS011;1673;51.388;7.086;2022-10-31T05:07:22;25.02;;;10.45;;
3321;SDS011;1673;51.388;7.086;2022-10-31T05:09:52;20.08;;;10.25;;
3321;SDS011;1673;51.388;7.086;2022-10-31T05:12:22;19.73;;;10.35;;
3321;SDS011;1673;51.388;7.086;2022-10-31T05:15:01;22.25;;;10.88;;
3321;SDS011;1673;51.388;7.086;2022-10-31T05:18:00;24.30;;;10.60;;
3321;SDS011;1673;51.388;7.086;2022-10-31T05:20:50;21.95;;;11.02;;
3321;SDS011;1673;51.388;7.086;2022-10-31T05:23:36;19.23;;;10.60;;
3321;SDS011;1673;51.388;7.086;2022-10-31T05:26:13;18.02;;;9.90;;
3321;SDS011;1673;51.388;7.086;2022-10-31T05:28:43;20.30;;;9.50;;
3321;SDS011;1673;51.388;7.086;2022-10-31T05:31:14;21.30;;;10.13;;
3321;SDS011;1673;51.388;7.086;2022-10-31T05:33:44;20.92;;;10.10;;
3321;SDS011;1673;51.388;7.086;2022-10-31T05:36:13;23.42;;;11.05;;
3321;SDS011;1673;51.388;7.086;2022-10-31T05:38:59;24.35;;;10.88;;
3321;SDS011;1673;51.388;7.086;2022-10-31T05:41:40;25.60;;;10.98;;
3321;SDS011;1673;51.388;7.086;2022-10-31T05:44:19;28.42;;;10.10;;
3321;SDS011;1673;51.388;7.086;2022-10-31T05:47:00;24.20;;;10.07;;
3321;SDS011;1673;51.388;7.086;2022-10-31T05:49:52;20.58;;;10.57;;
3321;SDS011;1673;51.388;7.086;2022-10-31T05:52:34;24.33;;;10.00;;
3321;SDS011;1673;51.388;7.086;2022-10-31T05:55:20;24.33;;;11.07;;
3321;SDS011;1673;51.388;7.086;2022-10-31T05:58:07;22.00;;;10.88;;
3321;SDS011;1673;51.388;7.086;2022-10-31T06:00:38;23.60;;;10.60;;
3321;SDS011;1673;51.388;7.086;2022-10-31T06:03:09;22.88;;;10.82;;
3321;SDS011;1673;51.388;7.086;2022-10-31T06:05:51;24.88;;;10.40;;
3321;SDS011;1673;51.388;7.086;2022-10-31T06:08:25;25.92;;;10.75;;
3321;SDS011;1673;51.388;7.086;2022-10-31T06:10:59;26.65;;;10.93;;
3321;SDS011;1673;51.388;7.086;2022-10-31T06:13:47;22.20;;;10.98;;
3321;SDS011;1673;51.388;7.086;2022-10-31T06:16:22;28.53;;;11.30;;
3321;SDS011;1673;51.388;7.086;2022-10-31T06:18:55;33.70;;;12.15;;
3321;SDS011;1673;51.388;7.086;2022-10-31T06:21:25;26.55;;;10.77;;
3321;SDS011;1673;51.388;7.086;2022-10-31T06:23:55;22.90;;;10.77;;
3321;SDS011;1673;51.388;7.086;2022-10-31T06:26:46;25.05;;;11.18;;
3321;SDS011;1673;51.388;7.086;2022-10-31T06:29:15;25.45;;;10.45;;
3321;SDS011;1673;51.388;7.086;2022-10-31T06:32:05;28.00;;;12.05;;
3321;SDS011;1673;51.388;7.086;2022-10-31T06:34:41;28.83;;;11.90;;
3321;SDS011;1673;51.388;7.086;2022-10-31T06:37:14;29.15;;;11.95;;
3321;SDS011;1673;51.388;7.086;2022-10-31T06:39:47;25.63;;;12.00;;
3321;SDS011;1673;51.388;7.086;2022-10-31T06:42:20;25.27;;;11.93;;
3321;SDS011;1673;51.388;7.086;2022-10-31T06:44:49;26.17;;;11.03;;
3321;SDS011;1673;51.388;7.086;2022-10-31T06:47:38;24.75;;;10.50;;
3321;SDS011;1673;51.388;7.086;2022-10-31T06:50:33;25.65;;;11.75;;
3321;SDS011;1673;51.388;7.086;2022-10-31T06:53:02;27.33;;;12.40;;
3321;SDS011;1673;51.388;7.086;2022-10-31T06:55:32;25.70;;;11.68;;
3321;SDS011;1673;51.388;7.086;2022-10-31T06:58:05;25.13;;;12.50;;
3321;SDS011;1673;51.388;7.086;2022-10-31T07:00:37;19.98;;;11.40;;
3321;SDS011;1673;51.388;7.086;2022-10-31T07:03:07;32.30;;;12.60;;
3321;SDS011;1673;51.388;7.086;2022-10-31T07:05:39;24.48;;;12.60;;
3321;SDS011;1673;51.388;7.086;2022-10-31T07:08:10;30.80;;;13.00;;
3321;SDS011;1673;51.388;7.086;2022-10-31T07:10:41;29.55;;;12.45;;
3321;SDS011;1673;51.388;7.086;2022-10-31T07:13:14;24.90;;;12.50;;
3321;SDS011;1673;51.388;7.086;2022-10-31T07:15:50;30.42;;;12.50;;
3321;SDS011;1673;51.388;7.086;2022-10-31T07:18:21;31.73;;;12.80;;
3321;SDS011;1673;51.388;7.086;2022-10-31T07:20:51;31.00;;;12.80;;
3321;SDS011;1673;51.388;7.086;2022-10-31T07:23:21;27.52;;;13.00;;
3321;SDS011;1673;51.388;7.086;2022-10-31T07:26:11;31.15;;;13.57;;
3321;SDS011;1673;51.388;7.086;2022-10-31T07:28:47;31.05;;;14.10;;
3321;SDS011;1673;51.388;7.086;2022-10-31T07:31:21;33.42;;;14.15;;
3321;SDS011;1673;51.388;7.086;2022-10-31T07:33:53;27.83;;;14.05;;
3321;SDS011;1673;51.388;7.086;2022-10-31T07:36:25;32.80;;;15.52;;
3321;SDS011;1673;51.388;7.086;2022-10-31T07:39:00;40.83;;;16.42;;
3321;SDS011;1673;51.388;7.086;2022-10-31T07:41:33;39.17;;;18.58;;
3321;SDS011;1673;51.388;7.086;2022-10-31T07:44:05;44.22;;;19.63;;
3321;SDS011;1673;51.388;7.086;2022-10-31T07:46:54;35.55;;;16.73;;
3321;SDS011;1673;51.388;7.086;2022-10-31T07:49:42;43.63;;;19.80;;
3321;SDS011;1673;51.388;7.086;2022-10-31T07:52:30;42.15;;;19.15;;
3321;SDS011;1673;51.388;7.086;2022-10-31T07:55:26;37.88;;;14.82;;
3321;SDS011;1673;51.388;7.086;2022-10-31T07:57:57;34.40;;;15.32;;
3321;SDS011;1673;51.388;7.086;2022-10-31T08:00:32;35.05;;;14.65;;
3321;SDS011;1673;51.388;7.086;2022-10-31T08:03:04;37.55;;;14.43;;
3321;SDS011;1673;51.388;7.086;2022-10-31T08:05:55;41.65;;;15.45;;
3321;SDS011;1673;51.388;7.086;2022-10-31T08:08:45;32.35;;;14.35;;
3321;SDS011;1673;51.388;7.086;2022-10-31T08:11:16;38.63;;;15.43;;
3321;SDS011;1673;51.388;7.086;2022-10-31T08:13:46;31.55;;;15.20;;
3321;SDS011;1673;51.388;7.086;2022-10-31T08:16:19;35.67;;;15.40;;
3321;SDS011;1673;51.388;7.086;2022-10-31T08:18:56;30.58;;;14.85;;
3321;SDS011;1673;51.388;7.086;2022-10-31T08:21:27;34.10;;;14.50;;
3321;SDS011;1673;51.388;7.086;2022-10-31T08:23:57;30.33;;;14.40;;
3321;SDS011;1673;51.388;7.086;2022-10-31T08:26:28;35.30;;;15.63;;
3321;SDS011;1673;51.388;7.086;2022-10-31T08:28:57;36.30;;;14.20;;
3321;SDS011;1673;51.388;7.086;2022-10-31T08:31:33;35.83;;;14.25;;
3321;SDS011;1673;51.388;7.086;2022-10-31T08:34:26;38.60;;;14.70;;
3321;SDS011;1673;51.388;7.086;2022-10-31T08:37:15;44.27;;;15.50;;
3321;SDS011;1673;51.388;7.086;2022-10-31T08:39:50;34.90;;;14.93;;
3321;SDS011;1673;51.388;7.086;2022-10-31T08:42:20;37.28;;;16.25;;
3321;SDS011;1673;51.388;7.086;2022-10-31T08:44:51;31.70;;;15.80;;
3321;SDS011;1673;51.388;7.086;2022-10-31T08:47:24;35.40;;;15.65;;
3321;SDS011;1673;51.388;7.086;2022-10-31T08:49:55;36.10;;;15.77;;
3321;SDS011;1673;51.388;7.086;2022-10-31T08:52:24;33.78;;;15.95;;
3321;SDS011;1673;51.388;7.086;2022-10-31T08:55:14;36.72;;;16.58;;
3321;SDS011;1673;51.388;7.086;2022-10-31T08:58:02;29.42;;;16.63;;
3321;SDS011;1673;51.388;7.086;2022-10-31T09:00:41;33.25;;;16.63;;
3321;SDS011;1673;51.388;7.086;2022-10-31T09:03:20;32.33;;;17.20;;
3321;SDS011;1673;51.388;7.086;2022-10-31T09:05:54;31.88;;;15.40;;
3321;SDS011;1673;51.388;7.086;2022-10-31T09:08:26;32.58;;;14.80;;
3321;SDS011;1673;51.388;7.086;2022-10-31T09:11:00;37.35;;;17.33;;
3321;SDS011;1673;51.388;7.086;2022-10-31T09:13:48;35.60;;;17.10;;
3321;SDS011;1673;51.388;7.086;2022-10-31T09:16:36;39.67;;;18.37;;
3321;SDS011;1673;51.388;7.086;2022-10-31T09:19:15;43.20;;;17.73;;
3321;SDS011;1673;51.388;7.086;2022-10-31T09:21:46;33.10;;;16.30;;
3321;SDS011;1673;51.388;7.086;2022-10-31T09:24:16;33.60;;;15.90;;
3321;SDS011;1673;51.388;7.086;2022-10-31T09:26:46;33.05;;;16.60;;
3321;SDS011;1673;51.388;7.086;2022-10-31T09:29:25;33.13;;;15.98;;
3321;SDS011;1673;51.388;7.086;2022-10-31T09:31:58;31.73;;;16.42;;
3321;SDS011;1673;51.388;7.086;2022-10-31T09:34:31;30.55;;;16.40;;
3321;SDS011;1673;51.388;7.086;2022-10-31T09:37:06;34.45;;;16.25;;
3321;SDS011;1673;51.388;7.086;2022-10-31T09:39:36;32.83;;;16.60;;
3321;SDS011;1673;51.388;7.086;2022-10-31T09:42:17;32.63;;;17.73;;
3321;SDS011;1673;51.388;7.086;2022-10-31T09:44:59;38.03;;;18.65;;
3321;SDS011;1673;51.388;7.086;2022-10-31T09:47:39;41.10;;;17.67;;
3321;SDS011;1673;51.388;7.086;2022-10-31T09:50:38;34.50;;;16.20;;
3321;SDS011;1673;51.388;7.086;2022-10-31T09:53:29;35.55;;;17.73;;
3321;SDS011;1673;51.388;7.086;2022-10-31T09:56:04;44.70;;;20.20;;
3321;SDS011;1673;51.388;7.086;2022-10-31T09:58:39;43.08;;;19.85;;
3321;SDS011;1673;51.388;7.086;2022-10-31T10:01:16;37.88;;;19.30;;
3321;SDS011;1673;51.388;7.086;2022-10-31T10:03:51;34.28;;;18.58;;
3321;SDS011;1673;51.388;7.086;2022-10-31T10:06:47;39.10;;;17.55;;
3321;SDS011;1673;51.388;7.086;2022-10-31T10:09:51;43.23;;;18.50;;
3321;SDS011;1673;51.388;7.086;2022-10-31T10:12:42;40.30;;;18.27;;
3321;SDS011;1673;51.388;7.086;2022-10-31T10:18:11;41.80;;;20.30;;
3321;SDS011;1673;51.388;7.086;2022-10-31T10:20:51;42.33;;;19.83;;
3321;SDS011;1673;51.388;7.086;2022-10-31T10:23:43;40.85;;;18.80;;
3321;SDS011;1673;51.388;7.086;2022-10-31T10:26:18;41.88;;;19.83;;
3321;SDS011;1673;51.388;7.086;2022-10-31T10:28:49;42.20;;;19.85;;
3321;SDS011;1673;51.388;7.086;2022-10-31T10:31:24;41.00;;;19.17;;
3321;SDS011;1673;51.388;7.086;2022-10-31T10:34:00;44.50;;;20.08;;
3321;SDS011;1673;51.388;7.086;2022-10-31T10:36:33;40.00;;;19.95;;
3321;SDS011;1673;51.388;7.086;2022-10-31T10:39:08;44.67;;;20.42;;
3321;SDS011;1673;51.388;7.086;2022-10-31T10:41:41;38.73;;;19.47;;
3321;SDS011;1673;51.388;7.086;2022-10-31T10:44:34;42.70;;;19.25;;
3321;SDS011;1673;51.388;7.086;2022-10-31T10:47:17;42.70;;;19.30;;
3321;SDS011;1673;51.388;7.086;2022-10-31T10:50:00;37.38;;;19.33;;
3321;SDS011;1673;51.388;7.086;2022-10-31T10:52:34;40.53;;;19.15;;
3321;SDS011;1673;51.388;7.086;2022-10-31T10:55:21;42.72;;;20.05;;
3321;SDS011;1673;51.388;7.086;2022-10-31T10:57:56;46.00;;;18.57;;
3321;SDS011;1673;51.388;7.086;2022-10-31T11:00:29;39.65;;;19.17;;
3321;SDS011;1673;51.388;7.086;2022-10-31T11:03:00;43.10;;;18.73;;
3321;SDS011;1673;51.388;7.086;2022-10-31T11:05:33;38.47;;;17.00;;
3321;SDS011;1673;51.388;7.086;2022-10-31T11:08:05;51.63;;;19.80;;
3321;SDS011;1673;51.388;7.086;2022-10-31T11:10:38;32.40;;;16.83;;
3321;SDS011;1673;51.388;7.086;2022-10-31T11:13:17;39.73;;;18.77;;
3321;SDS011;1673;51.388;7.086;2022-10-31T11:15:53;36.92;;;17.50;;
3321;SDS011;1673;51.388;7.086;2022-10-31T11:18:25;40.88;;;19.27;;
3321;SDS011;1673;51.388;7.086;2022-10-31T11:20:56;40.35;;;17.80;;
3321;SDS011;1673;51.388;7.086;2022-10-31T11:23:27;34.88;;;16.38;;
3321;SDS011;1673;51.388;7.086;2022-10-31T11:26:00;38.55;;;17.63;;
3321;SDS011;1673;51.388;7.086;2022-10-31T11:28:31;39.63;;;18.15;;
3321;SDS011;1673;51.388;7.086;2022-10-31T11:31:05;34.10;;;17.10;;
3321;SDS011;1673;51.388;7.086;2022-10-31T11:33:37;37.13;;;17.33;;
3321;SDS011;1673;51.388;7.086;2022-10-31T11:36:14;32.28;;;16.52;;
3321;SDS011;1673;51.388;7.086;2022-10-31T11:38:46;38.17;;;17.40;;
3321;SDS011;1673;51.388;7.086;2022-10-31T11:41:18;33.35;;;17.00;;
3321;SDS011;1673;51.388;7.086;2022-10-31T11:43:53;35.65;;;15.43;;
3321;SDS011;1673;51.388;7.086;2022-10-31T11:46:26;33.25;;;15.90;;
3321;SDS011;1673;51.388;7.086;2022-10-31T11:48:59;30.70;;;15.37;;
3321;SDS011;1673;51.388;7.086;2022-10-31T11:51:30;34.78;;;15.93;;
3321;SDS011;1673;51.388;7.086;2022-10-31T11:54:01;35.47;;;15.38;;
3321;SDS011;1673;51.388;7.086;2022-10-31T11:56:41;29.70;;;14.93;;
3321;SDS011;1673;51.388;7.086;2022-10-31T11:59:18;27.95;;;14.35;;
3321;SDS011;1673;51.388;7.086;2022-10-31T12:01:55;29.57;;;14.43;;
3321;SDS011;1673;51.388;7.086;2022-10-31T12:04:29;31.10;;;14.18;;
3321;SDS011;1673;51.388;7.086;2022-10-31T12:07:02;39.65;;;14.77;;
3321;SDS011;1673;51.388;7.086;2022-10-31T12:09:33;29.48;;;13.93;;
3321;SDS011;1673;51.388;7.086;2022-10-31T12:15:07;29.02;;;13.75;;
3321;SDS011;1673;51.388;7.086;2022-10-31T12:17:45;29.65;;;13.70;;
3321;SDS011;1673;51.388;7.086;2022-10-31T12:20:20;27.37;;;11.80;;
3321;SDS011;1673;51.388;7.086;2022-10-31T12:22:56;25.13;;;12.30;;
3321;SDS011;1673;51.388;7.086;2022-10-31T12:25:35;22.85;;;12.05;;
3321;SDS011;1673;51.388;7.086;2022-10-31T12:28:19;26.50;;;11.80;;
3321;SDS011;1673;51.388;7.086;2022-10-31T12:31:16;30.73;;;12.13;;
3321;SDS011;1673;51.388;7.086;2022-10-31T12:33:53;24.25;;;10.82;;
3321;SDS011;1673;51.388;7.086;2022-10-31T12:36:30;24.45;;;11.20;;
3321;SDS011;1673;51.388;7.086;2022-10-31T12:39:18;24.92;;;9.90;;
3321;SDS011;1673;51.388;7.086;2022-10-31T12:41:55;19.25;;;9.40;;
3321;SDS011;1673;51.388;7.086;2022-10-31T12:44:38;18.70;;;8.80;;
3321;SDS011;1673;51.388;7.086;2022-10-31T12:47:23;20.00;;;8.00;;
3321;SDS011;1673;51.388;7.086;2022-10-31T12:50:01;17.33;;;7.72;;
3321;SDS011;1673;51.388;7.086;2022-10-31T12:52:44;17.20;;;7.95;;
3321;SDS011;1673;51.388;7.086;2022-10-31T12:55:33;16.55;;;7.53;;
3321;SDS011;1673;51.388;7.086;2022-10-31T12:58:10;15.20;;;7.55;;
3321;SDS011;1673;51.388;7.086;2022-10-31T13:00:46;17.70;;;6.95;;
3321;SDS011;1673;51.388;7.086;2022-10-31T13:03:23;17.50;;;6.35;;
3321;SDS011;1673;51.388;7.086;2022-10-31T13:05:57;11.43;;;5.55;;
3321;SDS011;1673;51.388;7.086;2022-10-31T13:08:29;20.02;;;6.25;;
3321;SDS011;1673;51.388;7.086;2022-10-31T13:11:05;17.83;;;6.88;;
3321;SDS011;1673;51.388;7.086;2022-10-31T13:13:37;15.00;;;5.90;;
3321;SDS011;1673;51.388;7.086;2022-10-31T13:20:00;14.95;;;6.03;;
3321;SDS011;1673;51.388;7.086;2022-10-31T13:22:34;17.13;;;5.55;;
3321;SDS011;1673;51.388;7.086;2022-10-31T13:25:09;17.45;;;6.00;;
3321;SDS011;1673;51.388;7.086;2022-10-31T13:27:42;15.70;;;5.50;;
3321;SDS011;1673;51.388;7.086;2022-10-31T13:30:16;13.70;;;5.53;;
3321;SDS011;1673;51.388;7.086;2022-10-31T13:32:48;20.58;;;5.70;;
3321;SDS011;1673;51.388;7.086;2022-10-31T13:35:25;11.98;;;5.85;;
3321;SDS011;1673;51.388;7.086;2022-10-31T13:38:00;13.77;;;5.50;;
3321;SDS011;1673;51.388;7.086;2022-10-31T13:40:37;17.27;;;5.60;;
3321;SDS011;1673;51.388;7.086;2022-10-31T13:43:12;16.10;;;5.90;;
3321;SDS011;1673;51.388;7.086;2022-10-31T13:45:48;13.88;;;6.20;;
3321;SDS011;1673;51.388;7.086;2022-10-31T13:48:20;12.85;;;6.03;;
3321;SDS011;1673;51.388;7.086;2022-10-31T13:51:06;19.48;;;6.15;;
3321;SDS011;1673;51.388;7.086;2022-10-31T13:53:37;18.10;;;6.00;;
3321;SDS011;1673;51.388;7.086;2022-10-31T13:56:18;16.47;;;6.10;;
3321;SDS011;1673;51.388;7.086;2022-10-31T14:01:49;23.90;;;6.28;;
3321;SDS011;1673;51.388;7.086;2022-10-31T14:04:22;14.33;;;5.13;;
3321;SDS011;1673;51.388;7.086;2022-10-31T14:07:04;16.83;;;5.43;;
3321;SDS011;1673;51.388;7.086;2022-10-31T14:09:36;15.95;;;5.55;;
3321;SDS011;1673;51.388;7.086;2022-10-31T14:12:07;13.80;;;5.07;;
3321;SDS011;1673;51.388;7.086;2022-10-31T14:14:45;16.02;;;5.20;;
3321;SDS011;1673;51.388;7.086;2022-10-31T14:17:17;18.00;;;5.55;;
3321;SDS011;1673;51.388;7.086;2022-10-31T14:22:56;15.68;;;5.50;;
3321;SDS011;1673;51.388;7.086;2022-10-31T14:25:45;12.90;;;5.95;;
3321;SDS011;1673;51.388;7.086;2022-10-31T14:28:18;15.15;;;5.30;;
3321;SDS011;1673;51.388;7.086;2022-10-31T14:30:52;11.32;;;5.05;;
3321;SDS011;1673;51.388;7.086;2022-10-31T14:33:24;18.83;;;5.50;;
3321;SDS011;1673;51.388;7.086;2022-10-31T14:35:56;16.23;;;5.33;;
3321;SDS011;1673;51.388;7.086;2022-10-31T14:38:35;16.85;;;5.53;;
3321;SDS011;1673;51.388;7.086;2022-10-31T14:41:17;14.65;;;5.13;;
3321;SDS011;1673;51.388;7.086;2022-10-31T14:44:07;17.37;;;5.40;;
3321;SDS011;1673;51.388;7.086;2022-10-31T14:46:51;14.30;;;5.30;;
3321;SDS011;1673;51.388;7.086;2022-10-31T14:49:27;25.15;;;6.68;;
3321;SDS011;1673;51.388;7.086;2022-10-31T14:52:06;21.70;;;5.68;;
3321;SDS011;1673;51.388;7.086;2022-10-31T14:54:40;11.90;;;5.10;;
3321;SDS011;1673;51.388;7.086;2022-10-31T14:57:14;24.10;;;6.47;;
3321;SDS011;1673;51.388;7.086;2022-10-31T14:59:46;17.70;;;5.90;;
3321;SDS011;1673;51.388;7.086;2022-10-31T15:02:18;18.95;;;6.03;;
3321;SDS011;1673;51.388;7.086;2022-10-31T15:04:49;17.40;;;6.07;;
3321;SDS011;1673;51.388;7.086;2022-10-31T15:07:21;21.70;;;6.22;;
3321;SDS011;1673;51.388;7.086;2022-10-31T15:09:59;18.10;;;6.15;;
3321;SDS011;1673;51.388;7.086;2022-10-31T15:12:30;16.13;;;5.28;;
3321;SDS011;1673;51.388;7.086;2022-10-31T15:15:10;16.10;;;5.90;;
3321;SDS011;1673;51.388;7.086;2022-10-31T15:17:41;20.00;;;7.20;;
3321;SDS011;1673;51.388;7.086;2022-10-31T15:20:17;17.65;;;6.47;;
3321;SDS011;1673;51.388;7.086;2022-10-31T15:22:47;18.65;;;6.50;;
3321;SDS011;1673;51.388;7.086;2022-10-31T15:25:20;20.10;;;6.72;;
3321;SDS011;1673;51.388;7.086;2022-10-31T15:27:52;16.83;;;6.07;;
3321;SDS011;1673;51.388;7.086;2022-10-31T15:30:22;11.80;;;5.25;;
3321;SDS011;1673;51.388;7.086;2022-10-31T15:32:53;14.68;;;5.60;;
3321;SDS011;1673;51.388;7.086;2022-10-31T15:35:25;14.57;;;5.80;;
3321;SDS011;1673;51.388;7.086;2022-10-31T15:37:56;15.32;;;5.43;;
3321;SDS011;1673;51.388;7.086;2022-10-31T15:40:30;13.75;;;5.97;;
3321;SDS011;1673;51.388;7.086;2022-10-31T15:43:01;16.80;;;6.00;;
3321;SDS011;1673;51.388;7.086;2022-10-31T15:45:31;11.80;;;4.82;;
3321;SDS011;1673;51.388;7.086;2022-10-31T15:48:01;14.73;;;5.77;;
3321;SDS011;1673;51.388;7.086;2022-10-31T15:50:34;14.73;;;5.40;;
3321;SDS011;1673;51.388;7.086;2022-10-31T15:53:14;10.75;;;4.80;;
3321;SDS011;1673;51.388;7.086;2022-10-31T15:55:48;15.15;;;5.30;;
3321;SDS011;1673;51.388;7.086;2022-10-31T15:58:20;17.70;;;5.67;;
3321;SDS011;1673;51.388;7.086;2022-10-31T16:00:57;15.80;;;6.10;;
3321;SDS011;1673;51.388;7.086;2022-10-31T16:03:28;14.93;;;5.30;;
3321;SDS011;1673;51.388;7.086;2022-10-31T16:05:59;18.67;;;6.00;;
3321;SDS011;1673;51.388;7.086;2022-10-31T16:08:33;15.93;;;5.30;;